createdAt,value
2023-01-19T00:00:29.393Z,3.59
2023-01-19T00:01:32.077Z,3.50
2023-01-19T00:02:34.822Z,3.44
2023-01-19T00:03:37.559Z,3.40
2023-01-19T00:04:40.181Z,3.34
2023-01-19T00:05:44.138Z,3.37
2023-01-19T00:06:46.769Z,3.46
2023-01-19T00:07:50.513Z,3.45
2023-01-19T00:08:53.337Z,3.45
2023-01-19T00:09:56.059Z,3.52
2023-01-19T00:10:58.757Z,3.51
2023-01-19T00:12:01.604Z,3.49
2023-01-19T00:13:04.173Z,3.50
2023-01-19T00:14:06.896Z,3.44
2023-01-19T00:15:09.826Z,3.37
2023-01-19T00:16:12.447Z,3.43
2023-01-19T00:17:15.419Z,3.37
2023-01-19T00:18:18.458Z,3.32
2023-01-19T00:19:21.303Z,3.30
2023-01-19T00:20:23.937Z,3.34
2023-01-19T00:21:26.696Z,3.37
2023-01-19T00:22:29.345Z,3.36
2023-01-19T00:23:32.070Z,3.36
2023-01-19T00:24:34.937Z,3.34
2023-01-19T00:25:42.855Z,3.33
2023-01-19T00:26:46.191Z,3.37
2023-01-19T00:27:49.573Z,3.49
2023-01-19T00:28:53.258Z,3.45
2023-01-19T00:29:55.974Z,3.38
2023-01-19T00:30:58.574Z,3.39
2023-01-19T00:32:01.597Z,3.43
2023-01-19T00:33:04.377Z,3.39
2023-01-19T00:34:07.938Z,3.34
2023-01-19T00:35:10.461Z,3.26
2023-01-19T00:36:13.012Z,3.24
2023-01-19T00:37:17.024Z,3.22
2023-01-19T00:38:20.059Z,3.17
2023-01-19T00:39:22.738Z,3.22
2023-01-19T00:40:25.266Z,3.25
2023-01-19T00:41:46.494Z,3.20
2023-01-19T00:42:49.349Z,3.26
2023-01-19T00:43:51.982Z,3.16
2023-01-19T00:44:54.498Z,3.16
2023-01-19T00:45:57.069Z,3.20
2023-01-19T00:46:59.657Z,3.15
2023-01-19T00:48:02.550Z,3.31
2023-01-19T00:49:05.424Z,3.33
2023-01-19T00:50:09.058Z,3.21
2023-01-19T00:51:11.713Z,3.17
2023-01-19T00:52:14.317Z,3.09
2023-01-19T00:53:17.336Z,3.14
2023-01-19T00:54:21.737Z,3.13
2023-01-19T00:55:24.441Z,3.04
2023-01-19T00:56:27.431Z,3.02
2023-01-19T00:57:30.076Z,2.95
2023-01-19T00:58:32.747Z,3.05
2023-01-19T00:59:35.454Z,3.13
2023-01-19T01:00:38.435Z,3.14
2023-01-19T01:01:45.638Z,3.09
2023-01-19T01:02:50.350Z,3.03
2023-01-19T01:03:56.268Z,2.99
2023-01-19T01:05:03.257Z,2.97
2023-01-19T01:06:08.841Z,2.97
2023-01-19T01:07:11.764Z,3.04
2023-01-19T01:08:14.656Z,2.94
2023-01-19T01:09:17.351Z,2.98
2023-01-19T01:10:22.218Z,3.00
2023-01-19T01:11:24.836Z,2.92
2023-01-19T01:12:27.978Z,2.83
2023-01-19T01:13:31.064Z,2.85
2023-01-19T01:14:34.223Z,2.92
2023-01-19T01:15:36.787Z,2.93
2023-01-19T01:16:39.927Z,2.97
2023-01-19T01:17:47.567Z,2.83
2023-01-19T01:18:50.245Z,2.85
2023-01-19T01:19:52.830Z,2.92
2023-01-19T01:21:03.211Z,2.99
2023-01-19T01:22:06.025Z,2.96
2023-01-19T01:23:08.636Z,2.97
2023-01-19T01:24:11.392Z,2.99
2023-01-19T01:25:14.884Z,2.94
2023-01-19T01:26:17.630Z,2.97
2023-01-19T01:27:20.331Z,3.03
2023-01-19T01:28:23.161Z,3.02
2023-01-19T01:29:26.192Z,3.01
2023-01-19T01:30:28.845Z,2.94
2023-01-19T01:31:31.934Z,2.76
2023-01-19T01:32:34.601Z,2.77
2023-01-19T01:33:40.848Z,2.73
2023-01-19T01:34:44.811Z,2.78
2023-01-19T01:35:48.720Z,2.73
2023-01-19T01:36:51.566Z,2.81
2023-01-19T01:37:57.880Z,2.83
2023-01-19T01:39:00.605Z,2.86
2023-01-19T01:40:03.922Z,2.89
2023-01-19T01:41:06.835Z,2.79
2023-01-19T01:42:20.487Z,2.80
2023-01-19T01:43:23.330Z,2.79
2023-01-19T01:44:50.096Z,2.72
2023-01-19T01:45:54.254Z,2.73
2023-01-19T01:46:57.195Z,2.67
2023-01-19T01:48:02.721Z,2.78
2023-01-19T01:49:08.232Z,2.79
2023-01-19T01:50:18.076Z,2.70
2023-01-19T01:51:34.193Z,2.72
2023-01-19T01:52:41.091Z,2.80
2023-01-19T01:53:45.148Z,2.71
2023-01-19T01:54:47.847Z,2.74
2023-01-19T01:55:50.647Z,2.74
2023-01-19T01:56:55.733Z,2.77
2023-01-19T01:58:02.138Z,2.80
2023-01-19T01:59:06.983Z,2.70
2023-01-19T02:00:10.991Z,2.79
2023-01-19T02:01:32.278Z,2.85
2023-01-19T02:02:51.431Z,2.78
2023-01-19T02:03:54.784Z,2.82
2023-01-19T02:05:01.115Z,2.87
2023-01-19T02:06:05.642Z,2.79
2023-01-19T02:07:27.074Z,2.86
2023-01-19T02:09:00.958Z,2.84
2023-01-19T02:10:22.283Z,2.83
2023-01-19T02:11:44.530Z,2.70
2023-01-19T02:13:06.134Z,2.88
2023-01-19T02:14:08.896Z,2.77
2023-01-19T02:15:16.302Z,2.87
2023-01-19T02:16:19.147Z,2.94
2023-01-19T02:17:22.265Z,2.99
2023-01-19T02:18:27.310Z,2.93
2023-01-19T02:19:39.348Z,2.85
2023-01-19T02:20:45.350Z,2.72
2023-01-19T02:22:02.105Z,2.62
2023-01-19T02:23:08.019Z,2.60
2023-01-19T02:24:11.185Z,2.57
2023-01-19T02:25:14.147Z,2.52
2023-01-19T02:26:19.257Z,2.45
2023-01-19T02:27:21.901Z,2.32
2023-01-19T02:28:26.294Z,2.25
2023-01-19T02:29:29.226Z,2.33
2023-01-19T02:30:33.214Z,2.31
2023-01-19T02:31:37.537Z,2.32
2023-01-19T02:32:40.059Z,2.33
2023-01-19T02:33:42.812Z,2.31
2023-01-19T02:34:45.341Z,2.37
2023-01-19T02:35:49.703Z,2.34
2023-01-19T02:36:54.390Z,2.35
2023-01-19T02:37:57.872Z,2.34
2023-01-19T02:39:02.225Z,2.40
2023-01-19T02:40:06.162Z,2.41
2023-01-19T02:41:09.570Z,2.56
2023-01-19T02:42:32.455Z,2.44
2023-01-19T02:43:35.159Z,2.40
2023-01-19T02:44:38.633Z,2.35
2023-01-19T02:45:42.925Z,2.33
2023-01-19T02:46:46.150Z,2.45
2023-01-19T02:47:50.131Z,2.29
2023-01-19T02:48:52.834Z,2.23
2023-01-19T02:49:58.379Z,2.24
2023-01-19T02:51:04.981Z,2.24
2023-01-19T02:52:11.644Z,2.14
2023-01-19T02:53:24.933Z,2.27
2023-01-19T02:54:27.536Z,2.21
2023-01-19T02:55:31.932Z,2.23
2023-01-19T02:56:37.437Z,2.21
2023-01-19T02:57:59.637Z,2.18
2023-01-19T02:59:28.665Z,2.15
2023-01-19T03:00:42.934Z,2.14
2023-01-19T03:01:52.187Z,2.09
2023-01-19T03:03:02.394Z,2.08
2023-01-19T03:04:14.877Z,2.19
2023-01-19T03:05:17.671Z,2.25
2023-01-19T03:06:37.937Z,2.22
2023-01-19T03:07:50.959Z,2.02
2023-01-19T03:08:57.876Z,2.11
2023-01-19T03:10:07.317Z,2.03
2023-01-19T03:11:11.636Z,2.10
2023-01-19T03:12:33.141Z,2.10
2023-01-19T03:13:39.432Z,2.07
2023-01-19T03:14:46.216Z,2.10
2023-01-19T03:15:50.654Z,2.15
2023-01-19T03:16:59.465Z,2.10
2023-01-19T03:18:03.211Z,2.13
2023-01-19T03:19:29.981Z,2.12
2023-01-19T03:20:32.695Z,2.11
2023-01-19T03:21:37.034Z,2.05
2023-01-19T03:22:39.701Z,2.17
2023-01-19T03:23:45.061Z,2.28
2023-01-19T03:24:48.403Z,2.32
2023-01-19T03:25:51.497Z,2.26
2023-01-19T03:27:00.454Z,2.21
2023-01-19T03:28:04.417Z,2.25
2023-01-19T03:29:09.109Z,2.34
2023-01-19T03:30:14.204Z,2.36
2023-01-19T03:31:23.059Z,2.28
2023-01-19T03:32:30.288Z,2.34
2023-01-19T03:33:34.523Z,2.28
2023-01-19T03:34:38.667Z,2.18
2023-01-19T03:35:43.917Z,2.25
2023-01-19T03:36:51.005Z,2.33
2023-01-19T03:37:56.115Z,2.34
2023-01-19T03:39:00.627Z,2.30
2023-01-19T03:40:03.718Z,2.28
2023-01-19T03:41:09.370Z,2.26
2023-01-19T03:42:14.246Z,2.29
2023-01-19T03:43:18.607Z,2.35
2023-01-19T03:44:21.633Z,2.27
2023-01-19T03:45:24.340Z,2.12
2023-01-19T03:46:27.568Z,2.09
2023-01-19T03:47:30.539Z,2.11
2023-01-19T03:48:33.878Z,2.15
2023-01-19T03:49:37.088Z,2.19
2023-01-19T03:50:39.809Z,2.10
2023-01-19T03:51:42.484Z,2.07
2023-01-19T03:52:45.144Z,1.98
2023-01-19T03:53:47.803Z,1.99
2023-01-19T03:54:50.577Z,1.97
2023-01-19T03:55:54.523Z,1.93
2023-01-19T03:56:57.084Z,2.06
2023-01-19T03:57:59.824Z,2.01
2023-01-19T03:59:02.634Z,1.98
2023-01-19T04:00:05.571Z,1.98
2023-01-19T04:01:08.944Z,1.99
2023-01-19T04:02:11.649Z,1.95
2023-01-19T04:03:15.258Z,2.04
2023-01-19T04:04:17.963Z,2.15
2023-01-19T04:05:20.625Z,2.01
2023-01-19T04:06:23.198Z,1.94
2023-01-19T04:07:26.087Z,1.91
2023-01-19T04:08:29.059Z,1.98
2023-01-19T04:09:31.760Z,2.00
2023-01-19T04:10:34.617Z,1.97
2023-01-19T04:11:37.638Z,1.94
2023-01-19T04:12:40.367Z,1.90
2023-01-19T04:13:43.173Z,2.00
2023-01-19T04:14:45.820Z,2.09
2023-01-19T04:15:48.751Z,2.04
2023-01-19T04:16:52.430Z,2.01
2023-01-19T04:17:57.506Z,1.96
2023-01-19T04:19:00.167Z,1.95
2023-01-19T04:20:02.949Z,2.01
2023-01-19T04:21:07.162Z,1.96
2023-01-19T04:22:10.666Z,1.99
2023-01-19T04:23:13.242Z,1.99
2023-01-19T04:24:16.059Z,1.97
2023-01-19T04:25:18.968Z,2.05
2023-01-19T04:26:21.668Z,2.09
2023-01-19T04:27:25.915Z,2.00
2023-01-19T04:28:28.766Z,2.08
2023-01-19T04:29:31.472Z,2.02
2023-01-19T04:30:34.153Z,1.99
2023-01-19T04:31:37.217Z,2.04
2023-01-19T04:32:40.135Z,2.09
2023-01-19T04:33:42.817Z,1.98
2023-01-19T04:34:45.410Z,1.97
2023-01-19T04:35:51.884Z,1.99
2023-01-19T04:36:56.207Z,2.01
2023-01-19T04:37:59.072Z,2.11
2023-01-19T04:39:01.722Z,2.09
2023-01-19T04:40:04.570Z,2.22
2023-01-19T04:41:07.324Z,2.22
2023-01-19T04:42:10.098Z,2.12
2023-01-19T04:43:12.937Z,1.90
2023-01-19T04:44:15.580Z,1.92
2023-01-19T04:45:18.231Z,1.95
2023-01-19T04:46:20.936Z,1.98
2023-01-19T04:47:23.739Z,2.02
2023-01-19T04:48:26.717Z,2.05
2023-01-19T04:49:29.426Z,1.97
2023-01-19T04:50:32.901Z,1.87
2023-01-19T04:51:35.779Z,1.85
2023-01-19T04:52:38.408Z,1.80
2023-01-19T04:53:41.122Z,1.91
2023-01-19T04:54:43.782Z,1.91
2023-01-19T04:55:46.969Z,1.78
2023-01-19T04:56:50.876Z,1.74
2023-01-19T04:57:54.549Z,1.70
2023-01-19T04:58:57.099Z,1.73
2023-01-19T04:59:59.741Z,1.69
2023-01-19T05:01:02.565Z,1.72
2023-01-19T05:02:05.275Z,1.74
2023-01-19T05:03:07.994Z,1.72
2023-01-19T05:04:10.907Z,1.63
2023-01-19T05:05:13.602Z,1.59
2023-01-19T05:06:16.572Z,1.65
2023-01-19T05:07:19.551Z,1.71
2023-01-19T05:08:22.247Z,1.85
2023-01-19T05:09:26.136Z,1.85
2023-01-19T05:10:29.031Z,1.71
2023-01-19T05:11:31.675Z,1.72
2023-01-19T05:12:34.455Z,1.68
2023-01-19T05:13:37.132Z,1.55
2023-01-19T05:14:39.809Z,1.62
2023-01-19T05:15:42.871Z,1.62
2023-01-19T05:16:45.794Z,1.70
2023-01-19T05:17:48.389Z,1.74
2023-01-19T05:18:51.145Z,1.66
2023-01-19T05:19:53.959Z,1.67
2023-01-19T05:20:57.112Z,1.66
2023-01-19T05:21:59.700Z,1.67
2023-01-19T05:23:02.778Z,1.67
2023-01-19T05:24:05.943Z,1.62
2023-01-19T05:25:11.400Z,1.66
2023-01-19T05:26:14.399Z,1.63
2023-01-19T05:27:17.305Z,1.59
2023-01-19T05:28:21.620Z,1.66
2023-01-19T05:29:24.161Z,1.63
2023-01-19T05:30:26.893Z,1.61
2023-01-19T05:31:29.575Z,1.63
2023-01-19T05:32:32.252Z,1.57
2023-01-19T05:33:35.296Z,1.54
2023-01-19T05:34:37.906Z,1.64
2023-01-19T05:35:40.465Z,1.56
2023-01-19T05:36:43.391Z,1.54
2023-01-19T05:37:46.205Z,1.50
2023-01-19T05:38:49.404Z,1.53
2023-01-19T05:39:52.375Z,1.45
2023-01-19T05:40:58.820Z,1.47
2023-01-19T05:42:01.726Z,1.47
2023-01-19T05:43:05.522Z,1.46
2023-01-19T05:44:08.400Z,1.47
2023-01-19T05:45:12.132Z,1.55
2023-01-19T05:46:14.789Z,1.56
2023-01-19T05:47:17.424Z,1.54
2023-01-19T05:48:20.366Z,1.66
2023-01-19T05:49:23.000Z,1.67
2023-01-19T05:50:26.089Z,1.58
2023-01-19T05:51:35.233Z,1.49
2023-01-19T05:52:37.954Z,1.47
2023-01-19T05:53:40.851Z,1.39
2023-01-19T05:54:43.578Z,1.40
2023-01-19T05:55:46.219Z,1.47
2023-01-19T05:56:48.875Z,1.51
2023-01-19T05:57:51.564Z,1.49
2023-01-19T05:58:54.492Z,1.57
2023-01-19T05:59:57.141Z,1.61
2023-01-19T06:01:02.585Z,1.60
2023-01-19T06:02:05.347Z,1.61
2023-01-19T06:03:08.037Z,1.49
2023-01-19T06:04:10.599Z,1.51
2023-01-19T06:05:13.090Z,1.57
2023-01-19T06:06:15.697Z,1.58
2023-01-19T06:07:18.592Z,1.59
2023-01-19T06:08:21.341Z,1.58
2023-01-19T06:09:23.912Z,1.59
2023-01-19T06:10:26.797Z,1.62
2023-01-19T06:11:29.371Z,1.64
2023-01-19T06:12:32.732Z,1.68
2023-01-19T06:13:35.537Z,1.63
2023-01-19T06:14:38.353Z,1.66
2023-01-19T06:15:40.983Z,1.67
2023-01-19T06:16:44.342Z,1.66
2023-01-19T06:17:47.001Z,1.64
2023-01-19T06:18:49.700Z,1.56
2023-01-19T06:19:52.422Z,1.54
2023-01-19T06:20:58.968Z,1.66
2023-01-19T06:22:01.712Z,1.60
2023-01-19T06:23:04.537Z,1.53
2023-01-19T06:24:07.220Z,1.64
2023-01-19T06:25:10.387Z,1.55
2023-01-19T06:26:13.799Z,1.60
2023-01-19T06:27:16.393Z,1.51
2023-01-19T06:28:19.138Z,1.53
2023-01-19T06:29:22.413Z,1.53
2023-01-19T06:30:25.394Z,1.57
2023-01-19T06:31:28.098Z,1.59
2023-01-19T06:32:31.778Z,1.57
2023-01-19T06:33:34.389Z,1.58
2023-01-19T06:34:37.307Z,1.58
2023-01-19T06:35:43.089Z,1.66
2023-01-19T06:36:46.613Z,1.74
2023-01-19T06:37:49.505Z,1.76
2023-01-19T06:38:52.260Z,1.76
2023-01-19T06:39:55.179Z,1.80
2023-01-19T06:41:03.464Z,1.71
2023-01-19T06:42:06.069Z,1.70
2023-01-19T06:43:08.822Z,1.67
2023-01-19T06:44:11.423Z,1.70
2023-01-19T06:45:14.276Z,1.70
2023-01-19T06:46:17.183Z,1.68
2023-01-19T06:47:20.050Z,1.63
2023-01-19T06:48:23.063Z,1.62
2023-01-19T06:49:25.736Z,1.58
2023-01-19T06:50:28.459Z,1.57
2023-01-19T06:51:31.294Z,1.68
2023-01-19T06:52:33.828Z,1.71
2023-01-19T06:53:36.530Z,1.67
2023-01-19T06:54:39.119Z,1.73
2023-01-19T06:55:41.972Z,1.65
2023-01-19T06:56:44.698Z,1.63
2023-01-19T06:57:47.778Z,1.59
2023-01-19T06:58:52.264Z,1.62
2023-01-19T06:59:55.193Z,1.68
2023-01-19T07:01:04.840Z,1.74
2023-01-19T07:02:27.666Z,1.77
2023-01-19T07:03:31.715Z,1.79
2023-01-19T07:04:34.537Z,1.75
2023-01-19T07:05:37.106Z,1.84
2023-01-19T07:06:39.971Z,1.79
2023-01-19T07:07:43.382Z,1.77
2023-01-19T07:08:45.941Z,1.81
2023-01-19T07:09:49.023Z,1.78
2023-01-19T07:11:25.421Z,1.85
2023-01-19T07:12:22.891Z,1.89
2023-01-19T07:13:25.413Z,1.92
2023-01-19T07:14:34.067Z,1.86
2023-01-19T07:15:37.921Z,1.90
2023-01-19T07:16:40.874Z,1.83
2023-01-19T07:17:44.287Z,1.86
2023-01-19T07:18:48.655Z,1.87
2023-01-19T07:19:51.284Z,1.96
2023-01-19T07:20:53.997Z,1.93
2023-01-19T07:21:56.644Z,1.85
2023-01-19T07:22:59.630Z,1.86
2023-01-19T07:24:02.504Z,1.85
2023-01-19T07:25:05.402Z,1.94
2023-01-19T07:26:08.159Z,1.93
2023-01-19T07:27:11.895Z,2.03
2023-01-19T07:28:16.183Z,2.04
2023-01-19T07:29:18.860Z,2.01
2023-01-19T07:30:21.871Z,2.09
2023-01-19T07:31:25.069Z,1.99
2023-01-19T07:32:29.132Z,1.96
2023-01-19T07:33:31.694Z,2.10
2023-01-19T07:34:34.855Z,2.02
2023-01-19T07:35:37.633Z,2.02
2023-01-19T07:36:40.231Z,1.98
2023-01-19T07:37:42.988Z,1.97
2023-01-19T07:38:45.678Z,2.03
2023-01-19T07:39:49.075Z,2.02
2023-01-19T07:40:52.038Z,1.96
2023-01-19T07:41:54.628Z,2.02
2023-01-19T07:42:57.355Z,1.99
2023-01-19T07:44:00.261Z,2.01
2023-01-19T07:45:02.761Z,2.09
2023-01-19T07:46:06.654Z,2.03
2023-01-19T07:47:12.843Z,2.03
2023-01-19T07:48:15.447Z,2.04
2023-01-19T07:49:18.159Z,2.01
2023-01-19T07:50:24.750Z,2.04
2023-01-19T07:51:28.168Z,2.09
2023-01-19T07:52:31.253Z,2.04
2023-01-19T07:53:34.182Z,2.09
2023-01-19T07:54:36.786Z,2.11
2023-01-19T07:55:39.560Z,2.14
2023-01-19T07:56:42.308Z,2.23
2023-01-19T07:57:45.155Z,2.15
2023-01-19T07:58:50.151Z,2.12
2023-01-19T07:59:53.585Z,2.26
2023-01-19T08:00:56.653Z,2.23
2023-01-19T08:01:59.766Z,2.21
2023-01-19T08:03:03.797Z,2.25
2023-01-19T08:04:06.735Z,2.28
2023-01-19T08:05:09.411Z,2.38
2023-01-19T08:06:22.840Z,2.31
2023-01-19T08:07:25.397Z,2.26
2023-01-19T08:08:30.209Z,2.24
2023-01-19T08:09:32.955Z,2.28
2023-01-19T08:10:35.836Z,2.29
2023-01-19T08:11:38.940Z,2.29
2023-01-19T08:12:42.741Z,2.27
2023-01-19T08:13:45.301Z,2.45
2023-01-19T08:14:48.155Z,2.38
2023-01-19T08:15:52.213Z,2.26
2023-01-19T08:16:59.490Z,2.37
2023-01-19T08:18:05.896Z,2.42
2023-01-19T08:19:08.633Z,2.36
2023-01-19T08:20:12.366Z,2.30
2023-01-19T08:21:15.064Z,2.45
2023-01-19T08:22:17.715Z,2.44
2023-01-19T08:23:20.564Z,2.40
2023-01-19T08:24:25.769Z,2.36
2023-01-19T08:25:42.584Z,2.33
2023-01-19T08:26:45.716Z,2.32
2023-01-19T08:27:48.504Z,2.43
2023-01-19T08:28:51.569Z,2.50
2023-01-19T08:29:54.938Z,2.56
2023-01-19T08:30:57.975Z,2.42
2023-01-19T08:32:03.245Z,2.47
2023-01-19T08:33:08.496Z,2.52
2023-01-19T08:34:11.431Z,2.45
2023-01-19T08:35:14.104Z,2.44
2023-01-19T08:36:17.043Z,2.46
2023-01-19T08:37:19.887Z,2.55
2023-01-19T08:38:23.019Z,2.58
2023-01-19T08:39:26.022Z,2.52
2023-01-19T08:40:29.792Z,2.44
2023-01-19T08:41:32.910Z,2.40
2023-01-19T08:42:35.503Z,2.34
2023-01-19T08:43:41.043Z,2.44
2023-01-19T08:44:57.351Z,2.54
2023-01-19T08:46:00.568Z,2.60
2023-01-19T08:47:03.180Z,2.48
2023-01-19T08:48:06.656Z,2.45
2023-01-19T08:49:09.531Z,2.48
2023-01-19T08:50:12.507Z,2.56
2023-01-19T08:51:15.876Z,2.55
2023-01-19T08:52:18.552Z,2.47
2023-01-19T08:53:23.821Z,2.50
2023-01-19T08:54:26.389Z,2.42
2023-01-19T08:55:30.075Z,2.42
2023-01-19T08:56:32.792Z,2.47
2023-01-19T08:57:35.966Z,2.58
2023-01-19T08:58:39.540Z,2.47
2023-01-19T08:59:42.205Z,2.49
2023-01-19T09:00:44.827Z,2.50
2023-01-19T09:01:47.772Z,2.48
2023-01-19T09:02:50.602Z,2.58
2023-01-19T09:03:53.830Z,2.56
2023-01-19T09:04:56.539Z,2.43
2023-01-19T09:05:59.227Z,2.50
2023-01-19T09:07:01.890Z,2.54
2023-01-19T09:08:06.481Z,2.63
2023-01-19T09:09:09.397Z,2.57
2023-01-19T09:10:12.300Z,2.60
2023-01-19T09:11:16.011Z,2.52
2023-01-19T09:12:18.781Z,2.45
2023-01-19T09:13:21.625Z,2.45
2023-01-19T09:14:24.751Z,2.49
2023-01-19T09:15:27.350Z,2.39
2023-01-19T09:16:30.069Z,2.36
2023-01-19T09:17:32.714Z,2.48
2023-01-19T09:18:35.840Z,2.52
2023-01-19T09:19:38.424Z,2.52
2023-01-19T09:20:43.539Z,2.40
2023-01-19T09:21:46.147Z,2.41
2023-01-19T09:22:48.869Z,2.52
2023-01-19T09:23:51.725Z,2.45
2023-01-19T09:24:54.531Z,2.47
2023-01-19T09:25:58.159Z,2.50
2023-01-19T09:27:01.293Z,2.49
2023-01-19T09:28:04.416Z,2.52
2023-01-19T09:29:07.286Z,2.60
2023-01-19T09:30:11.717Z,2.47
2023-01-19T09:31:15.643Z,2.41
2023-01-19T09:32:19.627Z,2.37
2023-01-19T09:33:22.927Z,2.46
2023-01-19T09:34:28.458Z,2.49
2023-01-19T09:35:31.753Z,2.50
2023-01-19T09:36:36.987Z,2.44
2023-01-19T09:37:39.910Z,2.55
2023-01-19T09:38:42.806Z,2.46
2023-01-19T09:39:45.678Z,2.53
2023-01-19T09:40:50.557Z,2.60
2023-01-19T09:42:13.843Z,2.69
2023-01-19T09:43:16.874Z,2.63
2023-01-19T09:44:27.037Z,2.55
2023-01-19T09:45:39.065Z,2.59
2023-01-19T09:46:42.320Z,2.63
2023-01-19T09:47:45.745Z,2.68
2023-01-19T09:48:56.843Z,2.61
2023-01-19T09:50:03.692Z,2.48
2023-01-19T09:51:11.020Z,2.56
2023-01-19T09:52:15.061Z,2.47
2023-01-19T09:53:21.565Z,2.46
2023-01-19T09:54:30.233Z,2.45
2023-01-19T09:55:32.860Z,2.32
2023-01-19T09:56:35.707Z,2.44
2023-01-19T09:57:38.353Z,2.45
2023-01-19T09:58:41.855Z,2.49
2023-01-19T09:59:47.988Z,2.48
2023-01-19T10:00:58.457Z,2.53
2023-01-19T10:02:01.312Z,2.57
2023-01-19T10:03:15.303Z,2.50
2023-01-19T10:04:38.298Z,2.38
2023-01-19T10:05:53.865Z,2.38
2023-01-19T10:07:11.891Z,2.37
2023-01-19T10:08:27.499Z,2.44
2023-01-19T10:09:41.766Z,2.30
2023-01-19T10:10:51.983Z,2.27
2023-01-19T10:11:58.143Z,2.33
2023-01-19T10:13:26.669Z,2.38
2023-01-19T10:14:36.998Z,2.21
2023-01-19T10:15:52.576Z,2.25
2023-01-19T10:17:08.300Z,2.31
2023-01-19T10:18:11.134Z,2.34
2023-01-19T10:19:16.273Z,2.19
2023-01-19T10:20:23.224Z,2.03
2023-01-19T10:21:36.536Z,2.05
2023-01-19T10:22:39.408Z,2.07
2023-01-19T10:23:42.384Z,2.16
2023-01-19T10:24:46.243Z,2.07
2023-01-19T10:25:48.975Z,1.96
2023-01-19T10:26:53.949Z,1.91
2023-01-19T10:27:58.782Z,1.80
2023-01-19T10:29:12.703Z,1.87
2023-01-19T10:30:19.215Z,1.81
2023-01-19T10:31:23.751Z,1.97
2023-01-19T10:32:36.118Z,2.04
2023-01-19T10:33:39.050Z,1.97
2023-01-19T10:34:42.013Z,1.80
2023-01-19T10:35:45.418Z,1.64
2023-01-19T10:36:53.690Z,1.63
2023-01-19T10:38:01.994Z,1.85
2023-01-19T10:39:05.987Z,1.87
2023-01-19T10:40:11.977Z,1.85
2023-01-19T10:41:34.859Z,1.95
2023-01-19T10:42:39.201Z,1.90
2023-01-19T10:43:43.503Z,1.79
2023-01-19T10:44:46.328Z,1.89
2023-01-19T10:45:51.170Z,1.93
2023-01-19T10:46:56.276Z,1.86
2023-01-19T10:48:01.280Z,1.96
2023-01-19T10:49:04.318Z,1.78
2023-01-19T10:50:19.378Z,1.67
2023-01-19T10:51:22.455Z,1.45
2023-01-19T10:52:39.951Z,1.41
2023-01-19T10:54:02.693Z,1.64
2023-01-19T10:55:07.370Z,1.75
2023-01-19T10:56:15.901Z,1.82
2023-01-19T10:57:26.930Z,1.84
2023-01-19T10:58:30.949Z,1.87
2023-01-19T10:59:39.104Z,1.68
2023-01-19T11:00:43.089Z,1.53
2023-01-19T11:02:02.875Z,1.70
2023-01-19T11:03:24.566Z,1.70
2023-01-19T11:04:29.607Z,1.72
2023-01-19T11:05:33.814Z,1.52
2023-01-19T11:06:36.418Z,1.46
2023-01-19T11:07:39.097Z,1.31
2023-01-19T11:08:42.585Z,1.19
2023-01-19T11:09:46.131Z,1.14
2023-01-19T11:10:53.333Z,1.03
2023-01-19T11:11:56.068Z,1.07
2023-01-19T11:13:12.936Z,1.04
2023-01-19T11:14:18.672Z,1.13
2023-01-19T11:15:23.664Z,1.30
2023-01-19T11:16:27.932Z,1.27
2023-01-19T11:17:30.702Z,1.31
2023-01-19T11:18:34.925Z,1.08
2023-01-19T11:19:37.680Z,1.04
2023-01-19T11:20:54.486Z,0.93
2023-01-19T11:22:16.299Z,0.89
2023-01-19T11:23:21.787Z,1.03
2023-01-19T11:24:24.539Z,1.04
2023-01-19T11:25:31.289Z,0.95
2023-01-19T11:26:45.182Z,0.89
2023-01-19T11:27:52.297Z,1.09
2023-01-19T11:28:56.863Z,1.23
2023-01-19T11:30:08.220Z,1.15
2023-01-19T11:31:11.041Z,1.12
2023-01-19T11:32:20.728Z,1.16
2023-01-19T11:33:42.584Z,1.23
2023-01-19T11:34:45.194Z,0.97
2023-01-19T11:35:47.894Z,1.19
2023-01-19T11:37:04.901Z,0.97
2023-01-19T11:38:08.462Z,1.24
2023-01-19T11:39:24.590Z,1.27
2023-01-19T11:40:27.698Z,1.11
2023-01-19T11:41:35.023Z,0.99
2023-01-19T11:42:37.682Z,0.90
2023-01-19T11:43:49.050Z,0.99
2023-01-19T11:45:00.933Z,1.24
2023-01-19T11:46:03.948Z,1.03
2023-01-19T11:47:12.650Z,1.22
2023-01-19T11:48:29.610Z,1.44
2023-01-19T11:49:47.411Z,1.53
2023-01-19T11:50:50.694Z,1.44
2023-01-19T11:51:59.279Z,1.36
2023-01-19T11:53:06.388Z,1.42
2023-01-19T11:54:18.269Z,1.45
2023-01-19T11:55:39.577Z,1.51
2023-01-19T11:56:43.191Z,1.44
2023-01-19T11:57:47.666Z,1.19
2023-01-19T11:58:50.589Z,1.32
2023-01-19T11:59:54.380Z,1.31
2023-01-19T12:00:57.654Z,1.33
2023-01-19T12:02:02.965Z,1.25
2023-01-19T12:03:16.059Z,1.17
2023-01-19T12:04:48.352Z,1.24
2023-01-19T12:05:57.583Z,1.27
2023-01-19T12:07:07.155Z,1.30
2023-01-19T12:08:14.655Z,1.32
2023-01-19T12:09:26.132Z,1.17
2023-01-19T12:10:30.178Z,1.35
2023-01-19T12:11:35.785Z,1.28
2023-01-19T12:12:40.901Z,1.19
2023-01-19T12:13:45.166Z,1.28
2023-01-19T12:14:55.918Z,1.32
2023-01-19T12:16:13.500Z,1.20
2023-01-19T12:17:25.452Z,1.37
2023-01-19T12:18:36.475Z,1.23
2023-01-19T12:19:52.348Z,1.37
2023-01-19T12:20:56.785Z,1.02
2023-01-19T12:21:59.614Z,0.97
2023-01-19T12:23:08.735Z,1.04
2023-01-19T12:24:13.939Z,1.06
2023-01-19T12:25:22.508Z,1.09
2023-01-19T12:26:27.769Z,1.14
2023-01-19T12:27:38.647Z,1.18
2023-01-19T12:28:43.646Z,1.24
2023-01-19T12:29:46.805Z,1.19
2023-01-19T12:30:52.371Z,1.11
2023-01-19T12:32:13.337Z,1.08
2023-01-19T12:33:23.535Z,1.13
2023-01-19T12:34:27.448Z,1.07
2023-01-19T12:35:52.284Z,1.15
2023-01-19T12:36:57.998Z,1.08
2023-01-19T12:38:02.773Z,1.02
2023-01-19T12:39:19.708Z,1.00
2023-01-19T12:40:25.856Z,1.03
2023-01-19T12:41:40.907Z,1.02
2023-01-19T12:42:45.258Z,0.90
2023-01-19T12:43:48.967Z,0.82
2023-01-19T12:45:04.461Z,1.08
2023-01-19T12:46:25.861Z,1.00
2023-01-19T12:47:28.611Z,0.88
2023-01-19T12:48:32.097Z,0.86
2023-01-19T12:49:40.607Z,0.85
2023-01-19T12:50:46.753Z,0.89
2023-01-19T12:51:51.217Z,0.89
2023-01-19T12:52:58.941Z,0.87
2023-01-19T12:54:05.251Z,0.80
2023-01-19T12:55:14.163Z,0.91
2023-01-19T12:57:30.139Z,0.87
2023-01-19T12:58:34.723Z,0.91
2023-01-19T12:59:37.864Z,0.95
2023-01-19T13:00:45.332Z,1.04
2023-01-19T13:02:08.311Z,0.91
2023-01-19T13:03:16.840Z,1.05
2023-01-19T13:04:39.933Z,1.00
2023-01-19T13:05:42.651Z,0.95
2023-01-19T13:06:48.269Z,0.98
2023-01-19T13:08:06.635Z,1.00
2023-01-19T13:09:28.785Z,1.05
2023-01-19T13:10:50.819Z,1.15
2023-01-19T13:12:12.268Z,1.09
2023-01-19T13:13:19.530Z,1.00
2023-01-19T13:14:25.483Z,0.98
2023-01-19T13:15:29.444Z,0.97
2023-01-19T13:16:32.749Z,1.07
2023-01-19T13:17:49.780Z,1.09
2023-01-19T13:18:55.587Z,0.98
2023-01-19T13:20:18.195Z,0.99
2023-01-19T13:21:29.884Z,0.96
2023-01-19T13:22:51.056Z,0.98
2023-01-19T13:23:55.259Z,1.01
2023-01-19T13:25:05.773Z,0.97
2023-01-19T13:26:14.320Z,1.00
2023-01-19T13:27:17.304Z,1.07
2023-01-19T13:28:22.464Z,1.07
2023-01-19T13:29:27.935Z,1.06
2023-01-19T13:30:34.174Z,0.99
2023-01-19T13:31:40.420Z,0.98
2023-01-19T13:32:43.514Z,0.99
2023-01-19T13:33:56.678Z,1.02
2023-01-19T13:35:02.330Z,1.05
2023-01-19T13:36:14.066Z,1.00
2023-01-19T13:37:24.587Z,1.07
2023-01-19T13:38:28.206Z,1.10
2023-01-19T13:39:38.311Z,1.19
2023-01-19T13:40:41.323Z,1.12
2023-01-19T13:41:44.266Z,1.03
2023-01-19T13:42:48.296Z,1.00
2023-01-19T13:44:11.253Z,1.01
2023-01-19T13:45:34.377Z,1.01
2023-01-19T13:46:38.835Z,1.08
2023-01-19T13:47:46.421Z,1.19
2023-01-19T13:48:54.213Z,1.10
2023-01-19T13:49:57.403Z,1.12
2023-01-19T13:51:04.987Z,1.08
2023-01-19T13:52:14.147Z,1.07
2023-01-19T13:53:18.309Z,1.22
2023-01-19T13:54:21.521Z,1.24
2023-01-19T13:55:24.838Z,1.17
2023-01-19T13:56:29.092Z,1.23
2023-01-19T13:57:33.525Z,1.05
2023-01-19T13:58:36.491Z,1.01
2023-01-19T13:59:39.160Z,1.01
2023-01-19T14:00:45.616Z,1.08
2023-01-19T14:01:51.740Z,1.05
2023-01-19T14:03:02.694Z,1.11
2023-01-19T14:04:05.732Z,1.06
2023-01-19T14:05:31.562Z,0.97
2023-01-19T14:06:37.743Z,0.93
2023-01-19T14:07:40.417Z,0.88
2023-01-19T14:08:43.321Z,1.06
2023-01-19T14:09:46.711Z,0.98
2023-01-19T14:10:52.295Z,1.02
2023-01-19T14:12:05.457Z,1.06
2023-01-19T14:13:23.050Z,0.93
2023-01-19T14:14:27.924Z,0.91
2023-01-19T14:15:32.472Z,1.05
2023-01-19T14:16:35.212Z,0.99
2023-01-19T14:17:37.803Z,0.91
2023-01-19T14:18:41.006Z,0.97
2023-01-19T14:19:50.436Z,0.90
2023-01-19T14:20:57.508Z,0.91
2023-01-19T14:22:04.117Z,0.89
2023-01-19T14:23:26.695Z,0.81
2023-01-19T14:24:32.330Z,0.90
2023-01-19T14:25:36.277Z,0.90
2023-01-19T14:26:43.828Z,0.96
2023-01-19T14:27:46.557Z,0.90
2023-01-19T14:28:49.217Z,0.88
2023-01-19T14:29:54.067Z,0.83
2023-01-19T14:31:16.704Z,0.97
2023-01-19T14:32:22.231Z,0.94
2023-01-19T14:33:35.887Z,0.95
2023-01-19T14:34:41.691Z,0.84
2023-01-19T14:35:44.467Z,0.89